Time;durP1;ratioP1;P1;durP2;ratioP2;P2;SDS_P1;SDS_P2;PMS_P1;PMS_P2;Temp;Humidity;BMP_temperature;BMP_pressure;BME280_temperature;BME280_humidity;BME280_pressure;Samples;Min_cycle;Max_cycle;Signal;HPM_P1;HPM_P2
2021/06/17 00:01:02;;;;;;;3.95;3.63;;;24.90;58.30;;;;;;5075790;28;20024;-81
2021/06/17 00:03:27;;;;;;;5.57;3.78;;;24.90;58.50;;;;;;5079276;28;20091;-81
2021/06/17 00:05:53;;;;;;;4.35;3.95;;;24.90;58.50;;;;;;5077216;28;20029;-82
2021/06/17 00:08:19;;;;;;;4.32;3.65;;;24.90;58.50;;;;;;5075642;28;20024;-82
2021/06/17 00:10:48;;;;;;;4.43;4.03;;;24.90;58.60;;;;;;5075260;28;20470;-82
2021/06/17 00:13:26;;;;;;;4.45;4.03;;;24.90;58.70;;;;;;5075991;28;20033;-81
2021/06/17 00:15:57;;;;;;;4.43;3.90;;;24.90;58.70;;;;;;5071064;28;20557;-81
2021/06/17 00:18:25;;;;;;;5.97;4.25;;;24.90;58.70;;;;;;5074251;28;20031;-80
2021/06/17 00:20:51;;;;;;;5.28;4.18;;;24.80;58.70;;;;;;5075509;28;20510;-81
2021/06/17 00:23:17;;;;;;;5.43;4.22;;;24.80;58.70;;;;;;5081697;28;20044;-80
2021/06/17 00:25:43;;;;;;;4.80;4.30;;;24.80;58.70;;;;;;5088242;28;20032;-80
2021/06/17 00:28:10;;;;;;;5.88;4.15;;;24.80;58.80;;;;;;5086184;28;20114;-80
2021/06/17 00:30:36;;;;;;;4.88;4.30;;;24.80;58.90;;;;;;5087841;28;20040;-81
2021/06/17 00:33:02;;;;;;;4.40;4.00;;;24.70;58.90;;;;;;5081094;28;20024;-81
2021/06/17 00:35:29;;;;;;;6.13;4.30;;;24.70;58.90;;;;;;5081759;28;20024;-82
2021/06/17 00:37:55;;;;;;;6.15;4.07;;;24.70;59.10;;;;;;5087244;28;20050;-81
2021/06/17 00:40:22;;;;;;;5.38;4.50;;;24.70;59.10;;;;;;5087481;28;20093;-82
2021/06/17 00:42:50;;;;;;;4.40;4.00;;;24.70;59.20;;;;;;5085170;28;20024;-80
2021/06/17 00:45:43;;;;;;;6.13;4.30;;;24.60;59.20;;;;;;5079075;28;20075;-81
2021/06/17 00:48:10;;;;;;;5.32;4.28;;;24.60;59.40;;;;;;5082387;28;20035;-81
2021/06/17 00:50:54;;;;;;;4.57;4.18;;;24.60;59.50;;;;;;5087433;28;20031;-80
2021/06/17 00:53:26;;;;;;;5.18;3.92;;;24.50;59.50;;;;;;5086028;28;20056;-81
2021/06/17 00:55:54;;;;;;;4.85;4.15;;;24.50;59.70;;;;;;5082632;28;20526;-81
2021/06/17 00:58:20;;;;;;;5.50;4.40;;;24.40;59.80;;;;;;5084255;28;20032;-81
2021/06/17 01:00:46;;;;;;;5.25;4.22;;;24.40;60.00;;;;;;5080381;28;20028;-82
2021/06/17 01:03:12;;;;;;;6.68;4.18;;;24.40;60.10;;;;;;5080514;28;20036;-81
2021/06/17 01:05:39;;;;;;;4.57;3.97;;;24.30;60.20;;;;;;5083829;28;20036;-81
2021/06/17 01:08:18;;;;;;;4.10;3.67;;;24.30;60.40;;;;;;5085343;28;20048;-82
2021/06/17 01:11:02;;;;;;;4.85;3.95;;;24.20;60.50;;;;;;5080529;28;20021;-82
2021/06/17 01:17:12;;;;;;;5.38;4.03;;;24.20;60.80;;;;;;5082840;28;20063;-81
2021/06/17 01:20:16;;;;;;;6.15;4.22;;;24.10;60.80;;;;;;5088985;28;20035;-80
2021/06/17 01:22:52;;;;;;;5.03;4.20;;;24.10;61.00;;;;;;5083655;28;20092;-81
2021/06/17 01:25:27;;;;;;;4.30;3.90;;;24.10;61.20;;;;;;5085771;28;20033;-81
2021/06/17 01:28:10;;;;;;;5.18;4.00;;;24.00;61.10;;;;;;5085368;28;20028;-80
2021/06/17 01:31:05;;;;;;;4.75;4.20;;;24.00;61.30;;;;;;5088474;28;20021;-81
2021/06/17 01:33:35;;;;;;;4.60;4.10;;;24.00;61.40;;;;;;5081662;28;20032;-81
2021/06/17 01:36:08;;;;;;;4.30;3.90;;;24.00;61.40;;;;;;5083548;28;20025;-80
2021/06/17 01:38:35;;;;;;;4.75;4.35;;;24.00;61.40;;;;;;5081398;28;20035;-80
2021/06/17 01:41:03;;;;;;;4.97;3.92;;;24.00;61.40;;;;;;5083029;28;20028;-81
2021/06/17 01:43:29;;;;;;;5.10;4.40;;;24.00;61.40;;;;;;5079919;28;20063;-81
2021/06/17 01:45:57;;;;;;;6.43;4.03;;;24.00;61.60;;;;;;5078075;28;20174;-83
2021/06/17 01:48:24;;;;;;;4.80;4.25;;;24.00;61.60;;;;;;5077314;28;20024;-82
2021/06/17 01:54:21;;;;;;;4.85;4.20;;;24.00;61.80;;;;;;5080229;28;20035;-82
2021/06/17 01:56:53;;;;;;;4.43;4.03;;;23.90;61.80;;;;;;5078077;28;20059;-84
2021/06/17 01:59:20;;;;;;;6.35;4.68;;;23.90;61.90;;;;;;5079920;28;20027;-81
2021/06/17 02:01:48;;;;;;;5.10;4.53;;;23.90;61.90;;;;;;5075324;28;20027;-81
2021/06/17 02:04:17;;;;;;;5.70;4.40;;;23.90;62.00;;;;;;5085047;28;20503;-80
2021/06/17 02:06:44;;;;;;;5.20;4.60;;;23.90;62.10;;;;;;5078513;28;20062;-84
2021/06/17 02:09:10;;;;;;;5.07;4.57;;;23.80;62.20;;;;;;5077565;28;20032;-82
2021/06/17 02:11:37;;;;;;;5.65;5.05;;;23.80;62.30;;;;;;5080208;28;20128;-81
2021/06/17 02:14:04;;;;;;;6.18;4.75;;;23.80;62.30;;;;;;5079479;28;20444;-82
2021/06/17 02:19:52;;;;;;;6.30;4.97;;;23.80;62.60;;;;;;5082579;28;20514;-81
2021/06/17 02:22:19;;;;;;;6.43;5.32;;;23.80;62.60;;;;;;5084144;28;20029;-81
2021/06/17 02:24:48;;;;;;;6.35;4.97;;;23.70;63.30;;;;;;5086573;28;20048;-82
2021/06/17 02:27:19;;;;;;;7.13;4.97;;;23.70;62.80;;;;;;5085123;28;20048;-81
2021/06/17 02:29:47;;;;;;;6.22;5.10;;;23.70;63.50;;;;;;5085648;28;20040;-80
2021/06/17 02:32:18;;;;;;;5.95;5.13;;;23.70;63.00;;;;;;5087674;28;20021;-80
2021/06/17 02:34:47;;;;;;;8.00;5.00;;;23.70;63.20;;;;;;5088319;28;20476;-80
2021/06/17 02:37:14;;;;;;;5.93;5.20;;;23.70;63.30;;;;;;5088116;28;20028;-80
2021/06/17 02:39:41;;;;;;;6.38;5.40;;;23.70;63.30;;;;;;5087421;28;20059;-80
2021/06/17 02:42:13;;;;;;;7.72;5.57;;;23.70;63.30;;;;;;5087894;28;20029;-80
2021/06/17 02:44:42;;;;;;;6.82;5.55;;;23.70;63.20;;;;;;5090135;28;20039;-80
2021/06/17 02:47:07;;;;;;;6.53;5.85;;;23.70;63.20;;;;;;5089080;28;20048;-81
2021/06/17 02:49:33;;;;;;;7.93;6.45;;;23.70;63.30;;;;;;5089889;28;20031;-79
2021/06/17 02:51:59;;;;;;;8.48;5.78;;;23.70;63.30;;;;;;5087790;28;20017;-80
2021/06/17 02:54:24;;;;;;;7.35;6.22;;;23.70;63.30;;;;;;5087234;28;20071;-81
2021/06/17 02:57:30;;;;;;;6.57;5.97;;;23.70;63.30;;;;;;5085959;28;20480;-79
2021/06/17 03:00:04;;;;;;;6.85;6.13;;;23.70;63.50;;;;;;5085282;28;20028;-80
2021/06/17 03:02:37;;;;;;;6.82;6.15;;;23.70;63.60;;;;;;5088684;28;20082;-80
2021/06/17 03:05:20;;;;;;;7.22;6.00;;;23.50;63.60;;;;;;5084802;28;20052;-80
2021/06/17 03:07:58;;;;;;;6.88;6.18;;;23.60;63.70;;;;;;5081415;28;20025;-80
2021/06/17 03:10:24;;;;;;;7.85;7.00;;;23.50;63.80;;;;;;5083468;28;20490;-82
2021/06/17 03:12:53;;;;;;;7.22;6.53;;;23.50;63.90;;;;;;5078974;28;20035;-80
2021/06/17 03:15:19;;;;;;;7.70;6.35;;;23.50;64.10;;;;;;5081826;28;20146;-79
2021/06/17 03:17:49;;;;;;;7.13;6.15;;;23.50;64.10;;;;;;5071718;28;20444;-80
2021/06/17 03:20:18;;;;;;;7.10;6.40;;;23.50;64.20;;;;;;5076999;28;20384;-79
2021/06/17 03:22:50;;;;;;;6.90;6.25;;;23.50;64.20;;;;;;5077515;28;20012;-79
2021/06/17 03:25:20;;;;;;;7.03;6.25;;;23.50;64.20;;;;;;5076431;28;20025;-80
2021/06/17 03:27:50;;;;;;;7.88;6.35;;;23.50;64.20;;;;;;5084441;28;20095;-79
2021/06/17 03:30:19;;;;;;;6.72;6.13;;;23.50;64.20;;;;;;5078312;28;20021;-79
2021/06/17 03:32:46;;;;;;;7.50;6.53;;;23.50;64.20;;;;;;5073712;28;20029;-79
2021/06/17 03:35:12;;;;;;;7.35;6.70;;;23.60;64.20;;;;;;5076559;28;20031;-80
2021/06/17 03:37:39;;;;;;;9.85;6.75;;;23.50;64.20;;;;;;5077506;28;20025;-81
2021/06/17 03:40:05;;;;;;;7.40;6.50;;;23.60;64.20;;;;;;5075551;28;20062;-79
2021/06/17 03:42:33;;;;;;;7.22;6.47;;;23.60;64.20;;;;;;5081821;28;20090;-80
2021/06/17 03:45:00;;;;;;;7.68;6.97;;;23.60;64.30;;;;;;5084943;28;20028;-81
2021/06/17 03:47:27;;;;;;;7.15;6.50;;;23.60;64.40;;;;;;5087425;28;20104;-79
2021/06/17 03:53:15;;;;;;;7.90;6.07;;;23.50;64.40;;;;;;5087521;28;20050;-80
2021/06/17 03:55:43;;;;;;;7.55;6.40;;;23.50;64.30;;;;;;5085518;28;20025;-79
2021/06/17 04:01:37;;;;;;;7.05;6.32;;;23.60;64.50;;;;;;5086022;28;20089;-79
2021/06/17 04:04:03;;;;;;;7.43;6.72;;;23.50;64.50;;;;;;5083662;28;20054;-79
2021/06/17 04:06:29;;;;;;;8.32;7.25;;;23.50;64.40;;;;;;5081507;28;20028;-80
2021/06/17 04:08:57;;;;;;;9.63;6.72;;;23.60;64.60;;;;;;5082553;28;20491;-81
2021/06/17 04:11:24;;;;;;;7.07;6.38;;;23.60;64.60;;;;;;5080535;28;20039;-79
2021/06/17 04:13:50;;;;;;;7.25;6.55;;;23.60;64.70;;;;;;5083086;28;20093;-79
2021/06/17 04:16:21;;;;;;;7.82;6.70;;;23.60;64.70;;;;;;5082984;28;20025;-78
2021/06/17 04:18:48;;;;;;;9.20;6.68;;;23.60;64.70;;;;;;5078648;28;20029;-80
2021/06/17 04:21:16;;;;;;;7.68;6.90;;;23.60;64.70;;;;;;5076873;28;20024;-81
2021/06/17 04:23:56;;;;;;;7.57;6.82;;;23.60;64.70;;;;;;5074066;28;20429;-81
2021/06/17 04:26:24;;;;;;;7.30;6.60;;;23.60;64.70;;;;;;5071721;28;20024;-80
2021/06/17 04:28:53;;;;;;;8.25;7.22;;;23.60;64.70;;;;;;5074558;28;20028;-79
2021/06/17 04:31:20;;;;;;;7.60;6.80;;;23.60;64.80;;;;;;5078951;28;20028;-80
2021/06/17 04:33:47;;;;;;;7.72;7.03;;;23.50;64.80;;;;;;5076254;28;20017;-80
2021/06/17 04:36:13;;;;;;;7.45;6.63;;;23.50;64.80;;;;;;5080002;28;20037;-80
2021/06/17 04:38:39;;;;;;;8.52;7.03;;;23.60;64.80;;;;;;5075213;28;20031;-80
2021/06/17 04:41:07;;;;;;;8.40;7.18;;;23.60;64.80;;;;;;5076325;28;20025;-80
2021/06/17 04:43:34;;;;;;;8.52;7.63;;;23.60;64.80;;;;;;5079062;28;20028;-80
2021/06/17 04:46:01;;;;;;;8.05;7.25;;;23.60;64.80;;;;;;5081036;28;20036;-80
2021/06/17 04:48:29;;;;;;;8.13;7.32;;;23.60;64.80;;;;;;5081788;28;20134;-80
2021/06/17 04:50:55;;;;;;;7.78;6.97;;;23.70;64.90;;;;;;5078177;28;20020;-82
2021/06/17 04:53:20;;;;;;;7.22;6.55;;;23.70;64.80;;;;;;5076562;28;20021;-80
2021/06/17 04:55:51;;;;;;;7.90;7.10;;;23.70;64.80;;;;;;5080030;28;20059;-80
2021/06/17 04:58:21;;;;;;;7.63;6.93;;;23.70;64.90;;;;;;5087501;28;20017;-81
2021/06/17 05:00:47;;;;;;;7.43;6.72;;;23.70;64.80;;;;;;5088951;28;20025;-80
2021/06/17 05:03:14;;;;;;;9.50;6.90;;;23.70;64.90;;;;;;5079459;28;20056;-80
2021/06/17 05:05:40;;;;;;;7.80;7.00;;;23.70;64.80;;;;;;5078224;28;20028;-80
2021/06/17 05:10:52;;;;;;;8.48;6.88;;;23.80;64.80;;;;;;5082388;28;20020;-79
2021/06/17 05:13:28;;;;;;;7.10;6.35;;;23.80;64.80;;;;;;5081478;28;20028;-81
2021/06/17 05:15:55;;;;;;;7.78;6.20;;;23.90;64.80;;;;;;5083059;28;20020;-79
2021/06/17 05:18:25;;;;;;;9.02;6.32;;;23.90;64.60;;;;;;5077782;28;20025;-80
2021/06/17 05:20:51;;;;;;;8.07;6.93;;;24.00;64.60;;;;;;5079473;28;20029;-80
2021/06/17 05:23:21;;;;;;;7.63;6.53;;;24.00;64.50;;;;;;5073474;28;20503;-79
2021/06/17 05:25:48;;;;;;;9.00;6.78;;;24.00;64.50;;;;;;5072037;28;20098;-80
2021/06/17 05:28:15;;;;;;;7.40;6.68;;;24.00;64.40;;;;;;5073743;28;20103;-79
2021/06/17 05:30:44;;;;;;;11.38;6.85;;;24.10;64.50;;;;;;5073424;28;20413;-76
2021/06/17 05:33:10;;;;;;;7.70;5.85;;;24.10;64.40;;;;;;5070985;28;20539;-76
2021/06/17 05:35:36;;;;;;;6.50;5.90;;;24.20;64.40;;;;;;5072362;28;20099;-77
2021/06/17 05:38:03;;;;;;;6.47;5.88;;;24.20;64.30;;;;;;5072236;28;20074;-76
2021/06/17 05:40:29;;;;;;;8.75;6.10;;;24.20;64.20;;;;;;5071882;28;20143;-75
2021/06/17 05:42:55;;;;;;;8.88;6.32;;;24.20;64.20;;;;;;5075761;28;20059;-73
2021/06/17 05:45:20;;;;;;;6.00;5.40;;;24.30;64.10;;;;;;5074141;28;20134;-71
2021/06/17 05:47:46;;;;;;;7.43;5.53;;;24.30;63.90;;;;;;5074410;28;20023;-71
2021/06/17 05:50:12;;;;;;;6.10;5.50;;;24.30;63.80;;;;;;5075706;28;20021;-72
2021/06/17 05:52:37;;;;;;;5.32;4.93;;;24.40;63.60;;;;;;5075706;28;20044;-73
2021/06/17 05:55:07;;;;;;;5.75;4.43;;;24.50;63.40;;;;;;5074030;28;20071;-71
2021/06/17 05:57:35;;;;;;;6.68;4.80;;;24.50;63.20;;;;;;5075417;28;20079;-73
2021/06/17 06:00:01;;;;;;;5.97;4.78;;;24.60;63.00;;;;;;5074098;28;20041;-72
2021/06/17 06:02:27;;;;;;;5.75;4.53;;;24.60;62.80;;;;;;5073944;28;20499;-71
2021/06/17 06:04:53;;;;;;;5.10;4.63;;;24.70;62.60;;;;;;5075430;28;20032;-71
2021/06/17 06:07:19;;;;;;;5.10;4.60;;;24.70;62.50;;;;;;5075364;28;20071;-72
2021/06/17 06:09:45;;;;;;;5.85;4.65;;;24.80;62.30;;;;;;5057179;28;20048;-74
2021/06/17 06:12:13;;;;;;;5.78;4.75;;;24.90;62.30;;;;;;5073986;28;20039;-73
2021/06/17 06:14:39;;;;;;;5.07;4.60;;;24.90;62.10;;;;;;5074287;28;20031;-74
2021/06/17 06:17:05;;;;;;;8.48;4.57;;;24.90;62.10;;;;;;5075200;28;20099;-73
2021/06/17 06:19:31;;;;;;;5.43;4.47;;;25.00;62.00;;;;;;5075248;28;20039;-73
2021/06/17 06:21:57;;;;;;;7.32;4.80;;;25.00;62.00;;;;;;5075254;28;20027;-74
2021/06/17 06:24:23;;;;;;;4.63;4.22;;;25.10;62.00;;;;;;5075288;28;20036;-74
2021/06/17 06:26:52;;;;;;;6.05;4.25;;;25.10;61.80;;;;;;5073724;28;20024;-74
2021/06/17 06:29:17;;;;;;;5.68;4.30;;;25.10;61.60;;;;;;5075049;28;20017;-75
2021/06/17 06:31:43;;;;;;;4.85;4.45;;;25.20;61.60;;;;;;5075017;28;20380;-74
2021/06/17 06:34:10;;;;;;;4.45;3.78;;;25.30;61.50;;;;;;5074948;28;20032;-74
2021/06/17 06:36:35;;;;;;;4.57;4.05;;;25.30;61.40;;;;;;5073550;28;20031;-74
2021/06/17 06:39:01;;;;;;;6.00;4.03;;;25.30;61.50;;;;;;5073359;28;20499;-73
2021/06/17 06:41:26;;;;;;;5.82;4.53;;;25.40;61.10;;;;;;5073323;28;20468;-74
2021/06/17 06:43:52;;;;;;;4.97;3.85;;;25.40;61.30;;;;;;5073299;28;20135;-76
2021/06/17 06:46:17;;;;;;;4.65;3.65;;;25.50;60.90;;;;;;5073246;28;20443;-73
2021/06/17 06:48:43;;;;;;;4.75;4.25;;;25.50;60.80;;;;;;5073267;28;20025;-74
2021/06/17 06:51:09;;;;;;;5.85;4.38;;;25.60;60.70;;;;;;5073087;28;20024;-75
2021/06/17 06:53:34;;;;;;;6.57;4.55;;;25.70;60.70;;;;;;5072394;28;20038;-73
2021/06/17 06:56:01;;;;;;;5.22;3.83;;;25.80;60.60;;;;;;5074525;28;20032;-74
2021/06/17 06:58:26;;;;;;;4.47;3.65;;;25.90;60.30;;;;;;5074396;28;20036;-73
2021/06/17 07:00:53;;;;;;;4.93;4.47;;;26.00;60.20;;;;;;5072990;28;20039;-74
2021/06/17 07:03:19;;;;;;;4.25;3.85;;;26.10;59.90;;;;;;5072975;28;20119;-73
2021/06/17 07:05:45;;;;;;;4.53;3.45;;;26.20;59.70;;;;;;5072959;28;20466;-75
2021/06/17 07:08:11;;;;;;;4.43;3.65;;;26.30;59.50;;;;;;5074231;28;20028;-75
2021/06/17 07:10:37;;;;;;;5.57;4.13;;;26.40;59.30;;;;;;5074216;28;20021;-73
2021/06/17 07:13:04;;;;;;;5.03;3.45;;;26.50;59.20;;;;;;5072843;28;20031;-74
2021/06/17 07:15:29;;;;;;;6.13;3.90;;;26.60;59.00;;;;;;5074133;28;20120;-74
2021/06/17 07:17:55;;;;;;;6.30;3.72;;;26.70;58.80;;;;;;5072751;28;20032;-74
2021/06/17 07:20:20;;;;;;;5.72;4.40;;;26.70;58.80;;;;;;5072806;28;20494;-74
2021/06/17 07:22:46;;;;;;;6.03;3.72;;;26.80;58.90;;;;;;5072636;28;20063;-74
2021/06/17 07:25:12;;;;;;;4.97;3.63;;;26.80;58.70;;;;;;5072526;28;20174;-74
2021/06/17 07:27:38;;;;;;;4.40;3.55;;;26.80;58.60;;;;;;5072670;28;20025;-74
2021/06/17 07:30:05;;;;;;;5.32;3.63;;;26.80;58.40;;;;;;5072505;28;20043;-74
2021/06/17 07:32:31;;;;;;;4.40;3.40;;;26.80;58.30;;;;;;5072164;28;20035;-74
2021/06/17 07:34:57;;;;;;;4.10;3.70;;;26.90;58.30;;;;;;5072446;28;20021;-74
2021/06/17 07:37:22;;;;;;;4.95;3.50;;;26.90;58.20;;;;;;5072362;28;20029;-74
2021/06/17 07:39:48;;;;;;;3.80;3.50;;;27.00;58.00;;;;;;5073590;28;20029;-74
2021/06/17 07:42:14;;;;;;;5.22;3.53;;;27.00;57.70;;;;;;5072163;28;20030;-74
2021/06/17 07:44:40;;;;;;;4.05;3.28;;;27.00;57.50;;;;;;5072205;28;20029;-74
2021/06/17 07:47:07;;;;;;;4.57;3.58;;;27.00;57.30;;;;;;5071912;28;20076;-74
2021/06/17 07:49:34;;;;;;;6.22;3.60;;;27.00;57.90;;;;;;5072276;28;20029;-74
2021/06/17 07:51:59;;;;;;;4.35;3.78;;;27.10;57.30;;;;;;5071968;28;20021;-74
2021/06/17 07:54:25;;;;;;;6.45;3.78;;;27.10;57.30;;;;;;5071960;28;20073;-74
2021/06/17 07:56:51;;;;;;;5.00;3.60;;;27.10;57.10;;;;;;5071838;28;20025;-74
2021/06/17 07:59:20;;;;;;;3.70;3.28;;;27.20;57.00;;;;;;5071806;28;20036;-74
2021/06/17 08:01:48;;;;;;;3.45;2.90;;;27.20;56.80;;;;;;5073756;28;20452;-73
2021/06/17 08:04:13;;;;;;;6.47;3.40;;;27.30;56.50;;;;;;5072197;28;20024;-73
2021/06/17 08:06:39;;;;;;;3.72;3.05;;;27.40;56.10;;;;;;5073050;28;20040;-73
2021/06/17 08:09:05;;;;;;;4.57;3.15;;;27.40;56.10;;;;;;5071676;28;20027;-74
2021/06/17 08:11:30;;;;;;;4.13;3.10;;;27.50;55.80;;;;;;5071901;28;20111;-74
2021/06/17 08:13:56;;;;;;;4.35;2.85;;;27.60;55.40;;;;;;5071838;28;20024;-75
2021/06/17 08:16:22;;;;;;;3.20;2.90;;;27.60;55.00;;;;;;5073082;28;20078;-73
2021/06/17 08:18:50;;;;;;;4.18;2.90;;;27.60;54.80;;;;;;5071634;28;20028;-73
2021/06/17 08:21:15;;;;;;;3.53;2.95;;;27.70;54.60;;;;;;5071716;28;20032;-74
2021/06/17 08:23:41;;;;;;;3.70;3.10;;;27.70;54.40;;;;;;5072946;28;20108;-73
2021/06/17 08:26:07;;;;;;;3.20;2.92;;;27.70;54.20;;;;;;5072850;28;20039;-73
2021/06/17 08:28:34;;;;;;;4.80;3.17;;;27.80;54.10;;;;;;5073040;28;20020;-74
2021/06/17 08:30:59;;;;;;;4.05;2.95;;;27.80;53.90;;;;;;5072665;28;20024;-74
2021/06/17 08:33:25;;;;;;;4.10;3.20;;;27.90;53.90;;;;;;5071835;28;20032;-74
2021/06/17 08:35:52;;;;;;;4.72;3.38;;;28.00;53.80;;;;;;5071469;28;20468;-74
2021/06/17 08:38:20;;;;;;;3.58;3.28;;;28.00;53.70;;;;;;5072670;28;20020;-74
2021/06/17 08:40:46;;;;;;;3.38;2.92;;;28.10;53.60;;;;;;5072779;28;20107;-74
2021/06/17 08:43:12;;;;;;;3.92;3.55;;;28.10;53.50;;;;;;5071004;28;20056;-74
2021/06/17 08:45:38;;;;;;;3.97;2.97;;;28.10;53.50;;;;;;5070816;28;20065;-74
2021/06/17 08:48:04;;;;;;;4.63;3.03;;;28.20;53.50;;;;;;5071099;28;20102;-74
2021/06/17 08:50:30;;;;;;;3.10;2.80;;;28.20;53.40;;;;;;5072555;28;20035;-73
2021/06/17 08:52:56;;;;;;;3.65;2.92;;;28.20;53.40;;;;;;5071095;28;20071;-74
2021/06/17 08:55:24;;;;;;;5.07;3.05;;;28.30;53.30;;;;;;5070999;28;20396;-73
2021/06/17 08:57:52;;;;;;;5.03;2.75;;;28.30;53.20;;;;;;5072531;28;20040;-73
2021/06/17 09:03:42;;;;;;;3.05;2.75;;;28.30;53.10;;;;;;5072493;28;20031;-73
2021/06/17 09:06:08;;;;;;;6.05;3.30;;;28.30;53.10;;;;;;5070852;28;20041;-74
2021/06/17 09:08:34;;;;;;;3.58;3.00;;;28.40;53.20;;;;;;5072477;28;20043;-72
2021/06/17 09:11:16;;;;;;;3.13;2.83;;;28.40;53.20;;;;;;5071106;28;20025;-73
2021/06/17 09:13:42;;;;;;;3.40;2.78;;;28.40;53.00;;;;;;5070892;28;20029;-72
2021/06/17 09:16:08;;;;;;;5.18;2.90;;;28.40;52.90;;;;;;5072906;28;20024;-73
2021/06/17 09:18:35;;;;;;;6.40;2.85;;;28.40;52.80;;;;;;5074977;28;20414;-73
2021/06/17 09:21:09;;;;;;;3.30;2.65;;;28.40;52.70;;;;;;5074786;28;20398;-74
2021/06/17 09:23:39;;;;;;;2.50;2.30;;;28.50;52.90;;;;;;5076045;28;20034;-75
2021/06/17 09:26:23;;;;;;;3.08;2.80;;;28.50;52.90;;;;;;5074435;28;20119;-74
2021/06/17 09:28:49;;;;;;;3.67;2.40;;;28.60;52.80;;;;;;5074737;28;20492;-74
2021/06/17 09:31:20;;;;;;;2.90;2.63;;;28.60;52.70;;;;;;5074799;28;20039;-73
2021/06/17 09:33:48;;;;;;;4.57;2.70;;;28.70;52.60;;;;;;5074589;28;20024;-74
2021/06/17 09:36:14;;;;;;;3.42;2.90;;;28.70;52.40;;;;;;5071741;28;20047;-74
2021/06/17 09:42:10;;;;;;;3.75;2.53;;;28.90;52.40;;;;;;5076061;28;20082;-74
2021/06/17 09:44:40;;;;;;;2.97;2.42;;;29.00;52.40;;;;;;5074480;28;20024;-73
2021/06/17 09:47:24;;;;;;;3.50;2.60;;;29.10;52.30;;;;;;5071698;28;20048;-74
2021/06/17 09:49:51;;;;;;;3.65;2.63;;;29.10;52.20;;;;;;5074311;28;20124;-74
2021/06/17 09:52:20;;;;;;;2.95;2.33;;;29.20;52.20;;;;;;5074407;28;20346;-73
2021/06/17 09:54:47;;;;;;;2.97;2.35;;;29.40;52.20;;;;;;5074340;28;20392;-73
2021/06/17 09:57:24;;;;;;;2.88;2.38;;;29.50;52.00;;;;;;5074385;28;20032;-74
2021/06/17 09:59:55;;;;;;;2.70;2.40;;;29.60;51.80;;;;;;5074633;28;20020;-73
2021/06/17 10:02:33;;;;;;;2.97;2.55;;;29.80;51.70;;;;;;5075389;28;20032;-73
2021/06/17 10:05:19;;;;;;;4.53;2.53;;;29.90;51.50;;;;;;5075487;28;20132;-76
2021/06/17 10:07:46;;;;;;;3.25;2.72;;;30.00;51.30;;;;;;5074096;28;20025;-73
2021/06/17 10:10:14;;;;;;;3.13;2.60;;;30.10;51.20;;;;;;5073835;28;20028;-74
2021/06/17 10:12:41;;;;;;;2.67;2.47;;;30.20;51.10;;;;;;5075487;28;20036;-74
2021/06/17 10:15:07;;;;;;;5.15;2.50;;;30.30;50.90;;;;;;5073995;28;20016;-73
2021/06/17 10:17:33;;;;;;;5.03;3.08;;;30.40;50.90;;;;;;5073896;28;20127;-74
2021/06/17 10:20:01;;;;;;;4.15;2.55;;;30.50;50.80;;;;;;5073806;28;20060;-73
2021/06/17 10:22:32;;;;;;;3.97;2.90;;;30.60;50.60;;;;;;5073735;28;20029;-73
2021/06/17 10:24:59;;;;;;;2.58;2.38;;;30.70;50.30;;;;;;5073801;28;20032;-74
2021/06/17 10:27:36;;;;;;;3.75;2.47;;;30.80;50.20;;;;;;5072217;28;20123;-74
2021/06/17 10:30:06;;;;;;;3.08;2.47;;;30.90;50.80;;;;;;5073781;28;20024;-75
2021/06/17 10:32:33;;;;;;;3.00;2.70;;;31.00;50.20;;;;;;5073415;28;20017;-74
2021/06/17 10:34:59;;;;;;;3.03;2.83;;;31.10;50.30;;;;;;5074659;28;20484;-75
2021/06/17 10:37:32;;;;;;;4.60;3.10;;;31.20;50.10;;;;;;5074811;28;20111;-75
2021/06/17 10:40:10;;;;;;;4.88;3.30;;;31.30;49.70;;;;;;5073481;28;20028;-75
2021/06/17 10:42:44;;;;;;;3.53;2.80;;;31.40;49.70;;;;;;5074747;28;20178;-74
2021/06/17 10:45:11;;;;;;;5.40;3.20;;;31.40;49.50;;;;;;5073051;28;20064;-74
2021/06/17 10:50:19;;;;;;;3.85;2.88;;;31.50;49.50;;;;;;5074891;28;20133;-75
2021/06/17 10:52:46;;;;;;;3.15;2.80;;;31.50;49.40;;;;;;5073264;28;20027;-74
2021/06/17 10:55:20;;;;;;;4.35;3.00;;;31.70;49.30;;;;;;5074435;28;20151;-74
2021/06/17 10:57:49;;;;;;;3.42;3.10;;;31.70;49.00;;;;;;5072982;28;20435;-75
2021/06/17 11:00:27;;;;;;;4.00;3.22;;;31.80;48.90;;;;;;5072642;28;20024;-75
2021/06/17 11:03:03;;;;;;;3.20;2.88;;;31.80;48.70;;;;;;5072948;28;20024;-75
2021/06/17 11:05:40;;;;;;;4.22;2.70;;;31.80;49.20;;;;;;5072830;28;20024;-75
2021/06/17 11:08:24;;;;;;;3.55;2.88;;;31.80;48.90;;;;;;5074222;28;20068;-75
2021/06/17 11:10:58;;;;;;;3.38;3.05;;;31.80;48.70;;;;;;5072972;28;20130;-75
2021/06/17 11:13:31;;;;;;;5.32;2.80;;;31.90;48.90;;;;;;5072699;28;20028;-75
2021/06/17 11:16:13;;;;;;;7.38;3.22;;;31.90;48.80;;;;;;5072772;28;20119;-75
2021/06/17 11:18:49;;;;;;;3.53;3.22;;;31.90;48.70;;;;;;5074083;28;20028;-74
2021/06/17 11:21:21;;;;;;;3.67;3.00;;;31.90;48.60;;;;;;5072643;28;20082;-74
2021/06/17 11:27:28;;;;;;;3.78;3.30;;;32.00;48.90;;;;;;5073863;28;20584;-74
2021/06/17 11:29:56;;;;;;;4.80;3.40;;;32.00;48.80;;;;;;5072487;28;20163;-74
2021/06/17 11:32:28;;;;;;;5.57;3.30;;;32.10;48.90;;;;;;5072243;28;20107;-75
2021/06/17 11:34:55;;;;;;;3.38;3.08;;;32.30;48.80;;;;;;5072349;28;20031;-74
2021/06/17 11:37:21;;;;;;;4.75;3.10;;;32.40;48.70;;;;;;5073611;28;20499;-74
2021/06/17 11:43:08;;;;;;;4.22;3.30;;;32.60;48.60;;;;;;5073816;28;20035;-73
2021/06/17 11:45:36;;;;;;;3.67;3.30;;;32.60;48.10;;;;;;5071791;28;20407;-73
2021/06/17 11:48:05;;;;;;;4.47;3.45;;;32.80;48.00;;;;;;5073448;28;20025;-74
2021/06/17 11:50:31;;;;;;;5.63;3.63;;;32.80;47.60;;;;;;5071879;28;20021;-74
2021/06/17 11:52:58;;;;;;;4.15;3.00;;;32.90;47.50;;;;;;5073560;28;20029;-73
2021/06/17 11:55:25;;;;;;;4.65;3.30;;;33.00;47.00;;;;;;5071842;28;20025;-73
2021/06/17 11:57:51;;;;;;;4.78;3.35;;;33.00;46.70;;;;;;5069415;28;20120;-74
2021/06/17 12:00:31;;;;;;;4.93;3.40;;;33.00;46.10;;;;;;5068823;28;20073;-73
2021/06/17 12:02:57;;;;;;;4.25;3.55;;;33.00;46.00;;;;;;5072268;28;20054;-74
2021/06/17 12:05:27;;;;;;;4.22;3.30;;;33.00;46.10;;;;;;5071615;28;20108;-74
2021/06/17 12:07:54;;;;;;;5.32;3.10;;;33.00;46.10;;;;;;5071733;28;20021;-75
2021/06/17 12:10:25;;;;;;;3.55;3.25;;;33.10;46.10;;;;;;5071540;28;20020;-75
2021/06/17 12:12:59;;;;;;;4.00;3.30;;;33.20;46.00;;;;;;5073015;28;20198;-74
2021/06/17 12:15:28;;;;;;;3.70;3.40;;;33.30;45.80;;;;;;5071710;28;20020;-73
2021/06/17 12:17:59;;;;;;;3.45;2.90;;;33.30;45.70;;;;;;5072898;28;20039;-75
2021/06/17 12:20:31;;;;;;;3.78;3.33;;;33.40;45.60;;;;;;5071413;28;20031;-74
2021/06/17 12:22:57;;;;;;;;;;;33.40;45.50;;;;;;5072069;28;20563;-74
2021/06/17 12:25:24;;;;;;;4.30;2.50;;;33.40;45.60;;;;;;5071528;28;19952;-74
2021/06/17 12:27:51;;;;;;;3.08;2.20;;;33.40;44.30;;;;;;5072965;28;20029;-74
2021/06/17 12:30:31;;;;;;;2.58;2.28;;;33.30;44.10;;;;;;5072982;28;20546;-74
2021/06/17 12:33:03;;;;;;;3.97;2.40;;;33.30;43.80;;;;;;5071083;28;20025;-73
2021/06/17 12:35:36;;;;;;;3.75;2.60;;;33.40;43.70;;;;;;5072810;28;20028;-73
2021/06/17 12:38:02;;;;;;;4.03;2.50;;;33.50;43.80;;;;;;5071581;28;20032;-74
2021/06/17 12:40:32;;;;;;;3.08;2.40;;;33.60;43.70;;;;;;5071255;28;20020;-73
2021/06/17 12:43:05;;;;;;;4.30;2.10;;;33.80;43.50;;;;;;5072998;28;20480;-73
2021/06/17 12:45:31;;;;;;;3.05;2.03;;;33.90;43.20;;;;;;5071141;28;20032;-73
2021/06/17 12:48:04;;;;;;;2.75;2.15;;;33.90;42.80;;;;;;5071279;28;20119;-74
2021/06/17 12:53:14;;;;;;;3.78;2.40;;;34.00;41.80;;;;;;5077014;28;20083;-74
2021/06/17 12:55:40;;;;;;;2.17;1.98;;;33.90;42.00;;;;;;5076632;28;20029;-74
2021/06/17 12:58:07;;;;;;;2.40;2.15;;;33.90;42.20;;;;;;5076602;28;20027;-75
2021/06/17 13:00:33;;;;;;;5.38;2.30;;;33.90;42.20;;;;;;5072538;28;20483;-74
2021/06/17 13:02:59;;;;;;;3.10;2.00;;;33.90;42.00;;;;;;5076499;28;20061;-74
2021/06/17 13:05:28;;;;;;;3.67;2.00;;;33.90;41.90;;;;;;5075043;28;20021;-74
2021/06/17 13:08:07;;;;;;;3.58;2.05;;;34.10;41.70;;;;;;5076378;28;20386;-75
2021/06/17 13:10:50;;;;;;;2.40;2.05;;;34.10;41.60;;;;;;5074907;28;20107;-75
2021/06/17 13:13:28;;;;;;;2.92;2.00;;;34.20;41.80;;;;;;5074963;28;20029;-74
2021/06/17 13:16:01;;;;;;;4.22;1.95;;;34.30;41.50;;;;;;5076267;28;20394;-74
2021/06/17 13:22:01;;;;;;;2.13;1.70;;;34.40;41.10;;;;;;5076628;28;20071;-74
2021/06/17 13:24:27;;;;;;;2.58;1.63;;;34.40;41.20;;;;;;5074494;28;20442;-75
2021/06/17 13:27:13;;;;;;;3.97;1.85;;;34.40;41.10;;;;;;5074458;28;20119;-74
2021/06/17 13:33:03;;;;;;;1.73;1.60;;;34.40;40.90;;;;;;5076091;28;20089;-74
2021/06/17 13:35:32;;;;;;;7.40;1.85;;;34.30;41.00;;;;;;5074454;28;20495;-76
2021/06/17 13:37:59;;;;;;;5.45;1.80;;;34.30;40.70;;;;;;5074358;28;20017;-74
2021/06/17 13:40:25;;;;;;;1.95;1.63;;;34.20;40.40;;;;;;5075671;28;20036;-75
2021/06/17 13:42:56;;;;;;;5.43;1.90;;;34.20;40.40;;;;;;5074107;28;20024;-75